Time;durP1;ratioP1;P1;durP2;ratioP2;P2;SDS_P1;SDS_P2;PMS_P1;PMS_P2;Temp;Humidity;BMP_temperature;BMP_pressure;BME280_temperature;BME280_humidity;BME280_pressure;Samples;Min_cycle;Max_cycle;Signal;HPM_P1;HPM_P2
2022/09/27 00:00:14;;;;;;;7.20;1.05;;;10.30;99.90;;;;;;4897816;29;20048;-71
2022/09/27 00:02:40;;;;;;;5.63;1.10;;;10.40;99.90;;;;;;4899125;29;20577;-71
2022/09/27 00:05:06;;;;;;;8.25;1.17;;;10.40;99.90;;;;;;4900930;29;20131;-71
2022/09/27 00:07:32;;;;;;;4.60;1.35;;;10.40;99.90;;;;;;4893259;29;20081;-71
2022/09/27 00:09:58;;;;;;;5.10;1.50;;;10.40;99.90;;;;;;4882134;29;20049;-69
2022/09/27 00:12:23;;;;;;;5.43;0.98;;;10.40;99.90;;;;;;4898232;29;20107;-70
2022/09/27 00:14:49;;;;;;;6.70;1.55;;;10.30;99.90;;;;;;4884733;29;20433;-70
2022/09/27 00:17:15;;;;;;;3.78;1.00;;;10.30;99.90;;;;;;4898368;29;20116;-71
2022/09/27 00:19:40;;;;;;;3.85;1.02;;;10.20;99.90;;;;;;4902065;29;20049;-71
2022/09/27 00:22:06;;;;;;;6.78;1.20;;;10.30;99.90;;;;;;4899715;29;20040;-71
2022/09/27 00:24:32;;;;;;;4.50;1.20;;;10.20;99.90;;;;;;4897590;29;20048;-70
2022/09/27 00:26:58;;;;;;;7.25;1.50;;;10.20;99.90;;;;;;4895893;29;20068;-72
2022/09/27 00:29:24;;;;;;;5.97;1.30;;;10.20;99.90;;;;;;4893756;29;20037;-70
2022/09/27 00:31:49;;;;;;;7.57;1.10;;;10.20;99.90;;;;;;4883830;29;20081;-70
2022/09/27 00:34:23;;;;;;;7.05;1.38;;;10.20;99.90;;;;;;4879936;29;20041;-71
2022/09/27 00:36:50;;;;;;;7.70;1.73;;;10.20;99.90;;;;;;4877610;29;20045;-70
2022/09/27 00:39:16;;;;;;;7.93;1.88;;;10.10;99.90;;;;;;4898600;29;20451;-71
2022/09/27 00:41:42;;;;;;;8.25;1.63;;;10.20;99.90;;;;;;4894231;29;20139;-70
2022/09/27 00:44:32;;;;;;;7.18;1.33;;;10.20;99.90;;;;;;4899371;29;20036;-70
2022/09/27 00:47:00;;;;;;;10.75;1.80;;;10.20;99.90;;;;;;4878302;29;20048;-71
2022/09/27 00:49:30;;;;;;;;;;;10.20;99.90;;;;;;4877963;29;20048;-72
2022/09/27 00:52:04;;;;;;;7.88;1.17;;;10.20;99.90;;;;;;4870317;29;19970;-71
2022/09/27 00:54:32;;;;;;;10.32;1.80;;;10.10;99.90;;;;;;4894292;29;20049;-71
2022/09/27 00:56:58;;;;;;;;;;;10.20;99.90;;;;;;4895251;29;20398;-71
2022/09/27 00:59:36;;;;;;;6.35;1.58;;;10.10;99.90;;;;;;4896658;29;20442;-70
2022/09/27 01:02:05;;;;;;;6.10;1.08;;;10.10;99.90;;;;;;4895985;29;20048;-70
2022/09/27 01:04:31;;;;;;;;;;;10.00;99.90;;;;;;4896529;29;20045;-71
2022/09/27 01:06:56;;;;;;;6.30;1.40;;;10.20;99.90;;;;;;4880153;29;19931;-72
2022/09/27 01:09:23;;;;;;;11.38;1.90;;;10.10;99.90;;;;;;4880143;29;20459;-71
2022/09/27 01:12:06;;;;;;;10.27;1.92;;;10.10;99.90;;;;;;4883873;29;20498;-72
2022/09/27 01:14:59;;;;;;;7.35;2.00;;;10.10;99.90;;;;;;4893712;29;20425;-71
2022/09/27 01:17:34;;;;;;;8.05;1.80;;;10.10;99.90;;;;;;4890542;29;20045;-72
2022/09/27 01:20:12;;;;;;;6.90;1.83;;;10.10;99.90;;;;;;4895589;29;20053;-71
2022/09/27 01:22:47;;;;;;;9.38;1.63;;;10.10;99.90;;;;;;4891128;29;20182;-72
2022/09/27 01:25:18;;;;;;;9.35;1.67;;;10.10;99.90;;;;;;4880303;29;20559;-71
2022/09/27 01:28:23;;;;;;;6.03;1.55;;;10.10;99.90;;;;;;4890320;29;20406;-71
2022/09/27 01:31:09;;;;;;;4.95;1.40;;;10.10;99.90;;;;;;4858545;29;20060;-70
2022/09/27 01:33:52;;;;;;;6.30;1.10;;;10.20;99.90;;;;;;4895363;29;20053;-69
2022/09/27 03:06:39;;;;;;;9.00;2.20;;;9.50;99.90;;;;;;4870233;29;20053;-74
2022/09/27 03:09:32;;;;;;;12.52;2.00;;;9.50;99.90;;;;;;4868595;29;20089;-72
2022/09/27 03:11:58;;;;;;;9.70;1.67;;;9.50;99.90;;;;;;4867320;29;20113;-74
2022/09/27 03:14:23;;;;;;;9.32;1.70;;;9.40;99.90;;;;;;4874841;29;20060;-73
2022/09/27 03:16:49;;;;;;;4.90;1.27;;;9.50;99.90;;;;;;4870988;29;20041;-73
2022/09/27 03:19:15;;;;;;;3.70;0.88;;;9.40;99.90;;;;;;4872834;29;20086;-74
2022/09/27 03:21:40;;;;;;;5.30;1.10;;;9.60;99.90;;;;;;4857219;29;20049;-72
2022/09/27 03:24:06;;;;;;;3.33;1.08;;;9.50;99.90;;;;;;4877579;29;20041;-74
2022/09/27 03:26:32;;;;;;;5.70;1.27;;;9.50;99.90;;;;;;4877536;29;20041;-72
2022/09/27 03:28:57;;;;;;;3.40;1.00;;;9.40;99.90;;;;;;4876449;29;20464;-73
2022/09/27 03:31:23;;;;;;;8.75;1.23;;;9.40;99.90;;;;;;4842834;29;20128;-74
2022/09/27 03:33:48;;;;;;;10.27;1.73;;;9.40;99.90;;;;;;4868658;29;20083;-72
2022/09/27 03:36:14;;;;;;;10.93;1.60;;;9.40;99.90;;;;;;4876784;29;20049;-73
2022/09/27 03:38:40;;;;;;;12.75;1.52;;;9.40;99.90;;;;;;4861439;29;20455;-73
2022/09/27 03:41:05;;;;;;;4.03;0.93;;;9.40;99.90;;;;;;4869805;29;20526;-73
2022/09/27 03:43:31;;;;;;;6.45;1.30;;;9.40;99.90;;;;;;4877807;29;20048;-73
2022/09/27 03:45:56;;;;;;;3.88;0.90;;;9.40;99.90;;;;;;4875879;29;20452;-72
2022/09/27 03:48:22;;;;;;;8.15;1.20;;;9.40;99.90;;;;;;4877825;29;20041;-73
2022/09/27 03:50:50;;;;;;;4.15;1.13;;;9.30;99.90;;;;;;4882309;29;20052;-72
2022/09/27 03:53:15;;;;;;;7.47;0.98;;;9.30;99.90;;;;;;4873809;29;20108;-73
2022/09/27 03:55:44;;;;;;;3.40;0.90;;;9.30;99.90;;;;;;4877297;29;20480;-73
2022/09/27 03:58:10;;;;;;;6.47;1.10;;;9.30;99.90;;;;;;4877214;29;20055;-73
2022/09/27 04:00:36;;;;;;;6.40;1.13;;;9.30;99.90;;;;;;4854501;29;20038;-73
2022/09/27 04:03:01;;;;;;;6.95;1.10;;;9.30;99.90;;;;;;4871981;29;20565;-72
2022/09/27 04:05:28;;;;;;;9.60;1.23;;;9.30;99.90;;;;;;4875260;29;20049;-73
2022/09/27 04:07:53;;;;;;;6.78;1.50;;;9.30;99.90;;;;;;4867861;29;20049;-72
2022/09/27 04:10:20;;;;;;;5.95;1.52;;;9.30;99.90;;;;;;4873379;29;20389;-72
2022/09/27 04:12:46;;;;;;;6.78;1.27;;;9.30;99.90;;;;;;4874667;29;20041;-73
2022/09/27 04:15:12;;;;;;;9.07;1.63;;;9.30;99.90;;;;;;4875693;29;20052;-73
2022/09/27 04:17:41;;;;;;;9.75;1.70;;;9.40;99.90;;;;;;4876104;29;20045;-74
2022/09/27 04:20:08;;;;;;;9.80;1.40;;;9.30;99.90;;;;;;4878869;29;20088;-73
2022/09/27 04:22:33;;;;;;;4.15;1.23;;;9.30;99.90;;;;;;4880928;29;20049;-75
2022/09/27 04:24:59;;;;;;;11.35;1.92;;;9.30;99.90;;;;;;4876724;29;20551;-74
2022/09/27 04:27:25;;;;;;;5.75;1.42;;;9.30;99.90;;;;;;4879324;29;20395;-73
2022/09/27 04:29:51;;;;;;;7.72;1.38;;;9.30;99.90;;;;;;4879004;29;20048;-74
2022/09/27 04:32:16;;;;;;;10.00;1.92;;;9.30;99.90;;;;;;4876556;29;20055;-73
2022/09/27 04:37:26;;;;;;;6.65;1.30;;;9.40;99.90;;;;;;4872295;29;20396;-74
2022/09/27 04:39:52;;;;;;;7.75;1.30;;;9.40;99.90;;;;;;4860872;29;20064;-74
2022/09/27 04:42:18;;;;;;;7.18;0.93;;;9.30;99.90;;;;;;4879184;29;20499;-73
2022/09/27 04:44:44;;;;;;;8.65;1.60;;;9.40;99.90;;;;;;4869673;29;20045;-74
2022/09/27 04:47:10;;;;;;;6.35;1.20;;;9.40;99.90;;;;;;4847639;29;20454;-73
2022/09/27 04:49:37;;;;;;;9.80;1.50;;;9.30;99.90;;;;;;4884331;29;20083;-74
2022/09/27 04:52:04;;;;;;;6.50;1.27;;;9.30;99.90;;;;;;4874315;29;20096;-73
2022/09/27 04:54:30;;;;;;;11.05;1.50;;;9.30;99.90;;;;;;4875423;29;20131;-74
2022/09/27 04:56:56;;;;;;;5.75;1.20;;;9.30;99.90;;;;;;4875384;29;20117;-74
2022/09/27 04:59:22;;;;;;;8.35;1.50;;;9.30;99.90;;;;;;4857735;29;20053;-75
2022/09/27 05:01:49;;;;;;;9.07;1.15;;;9.30;99.90;;;;;;4870393;29;20452;-72
2022/09/27 05:04:15;;;;;;;9.80;1.30;;;9.30;99.90;;;;;;4863059;29;20050;-72
2022/09/27 05:06:40;;;;;;;5.30;1.20;;;9.30;99.90;;;;;;4879113;29;20044;-73
2022/09/27 05:09:06;;;;;;;5.75;1.40;;;9.30;99.90;;;;;;4880788;29;20041;-74
2022/09/27 05:11:31;;;;;;;9.98;2.17;;;9.30;99.90;;;;;;4861262;29;20448;-73
2022/09/27 05:13:57;;;;;;;4.43;1.00;;;9.30;99.90;;;;;;4861822;29;20166;-74
2022/09/27 05:16:23;;;;;;;9.43;1.33;;;9.40;99.90;;;;;;4875219;29;20076;-73
2022/09/27 05:18:49;;;;;;;7.75;1.42;;;9.30;99.90;;;;;;4875502;29;20112;-73
2022/09/27 05:21:15;;;;;;;7.85;1.30;;;9.30;99.90;;;;;;4856981;29;20037;-73
2022/09/27 05:23:40;;;;;;;5.30;1.38;;;9.30;99.90;;;;;;4843716;29;20109;-73
2022/09/27 05:26:06;;;;;;;9.30;1.58;;;9.30;99.90;;;;;;4855097;29;20061;-73
2022/09/27 05:28:34;;;;;;;8.35;1.40;;;9.30;99.90;;;;;;4873517;29;20476;-72
2022/09/27 05:31:02;;;;;;;5.45;1.33;;;9.30;99.90;;;;;;4868789;29;20054;-72
2022/09/27 05:33:29;;;;;;;3.88;1.10;;;9.30;99.90;;;;;;4870542;29;20093;-72
2022/09/27 05:35:56;;;;;;;10.60;1.42;;;9.30;99.90;;;;;;4856998;29;20053;-73
2022/09/27 05:38:23;;;;;;;5.18;1.25;;;9.20;99.90;;;;;;4876983;29;20563;-73
2022/09/27 05:40:50;;;;;;;5.07;1.17;;;9.30;99.90;;;;;;4859780;29;20056;-72
2022/09/27 05:43:20;;;;;;;6.43;1.33;;;9.30;99.90;;;;;;4856724;29;20037;-73
2022/09/27 05:45:46;;;;;;;8.85;2.05;;;9.20;99.90;;;;;;4863217;29;20649;-74
2022/09/27 05:48:13;;;;;;;8.00;1.83;;;9.20;99.90;;;;;;4876912;29;20096;-73
2022/09/27 05:50:39;;;;;;;10.57;1.52;;;9.20;99.90;;;;;;4876109;29;20132;-73
2022/09/27 05:53:05;;;;;;;9.38;1.60;;;9.20;99.90;;;;;;4879481;29;20519;-73
2022/09/27 05:55:31;;;;;;;5.82;1.50;;;9.20;99.90;;;;;;4862077;29;20049;-73
2022/09/27 05:58:03;;;;;;;8.85;1.35;;;9.20;99.90;;;;;;4874246;29;20049;-74
2022/09/27 06:00:30;;;;;;;6.60;1.33;;;9.30;99.90;;;;;;4868137;29;20147;-73
2022/09/27 06:02:57;;;;;;;9.70;1.40;;;9.20;99.90;;;;;;4875180;29;20498;-73
2022/09/27 06:05:24;;;;;;;14.20;2.28;;;9.30;99.90;;;;;;4876212;29;20053;-73
2022/09/27 06:07:51;;;;;;;6.72;1.50;;;9.20;99.90;;;;;;4875821;29;20065;-72
2022/09/27 06:10:18;;;;;;;8.88;1.27;;;9.30;99.90;;;;;;4876728;29;20063;-72
2022/09/27 06:12:44;;;;;;;8.15;1.42;;;9.30;99.90;;;;;;4872427;29;20546;-73
2022/09/27 06:15:10;;;;;;;6.53;1.40;;;9.30;99.90;;;;;;4872357;29;20488;-74
2022/09/27 06:17:36;;;;;;;7.68;1.52;;;9.30;99.90;;;;;;4879288;29;20132;-73
2022/09/27 06:20:03;;;;;;;8.85;2.53;;;9.30;99.90;;;;;;4855841;29;20153;-74
2022/09/27 06:22:29;;;;;;;13.57;1.88;;;9.30;99.90;;;;;;4878238;29;20064;-74
2022/09/27 06:24:54;;;;;;;10.18;1.58;;;9.40;99.90;;;;;;4863369;29;20045;-74
2022/09/27 06:27:28;;;;;;;11.07;2.13;;;9.30;99.90;;;;;;4859079;29;20066;-73
2022/09/27 06:29:54;;;;;;;10.07;2.00;;;9.30;99.90;;;;;;4856749;29;20040;-74
2022/09/27 06:32:20;;;;;;;8.98;2.20;;;9.40;99.90;;;;;;4869967;29;20053;-73
2022/09/27 06:34:46;;;;;;;10.27;1.90;;;9.50;99.90;;;;;;4875938;29;20051;-74
2022/09/27 06:37:11;;;;;;;11.95;3.00;;;9.40;99.90;;;;;;4879559;29;20068;-74
2022/09/27 06:39:37;;;;;;;9.50;1.80;;;9.50;99.90;;;;;;4875027;29;20128;-74
2022/09/27 06:42:03;;;;;;;8.02;1.60;;;9.50;99.90;;;;;;4857198;29;20049;-74
2022/09/27 06:44:28;;;;;;;11.73;2.10;;;9.50;99.90;;;;;;4874919;29;20041;-74
2022/09/27 06:46:54;;;;;;;12.23;2.20;;;9.60;99.90;;;;;;4877314;29;20048;-74
2022/09/27 06:49:21;;;;;;;11.18;2.78;;;9.60;99.90;;;;;;4876038;29;20044;-74
2022/09/27 06:51:47;;;;;;;9.55;2.72;;;9.50;99.90;;;;;;4881379;29;20127;-73
2022/09/27 06:54:13;;;;;;;10.88;2.30;;;9.50;99.90;;;;;;4874323;29;20128;-72
2022/09/27 06:56:39;;;;;;;9.57;1.63;;;9.50;99.90;;;;;;4875161;29;20125;-73
2022/09/27 07:01:51;;;;;;;10.23;1.88;;;9.50;99.90;;;;;;4874605;29;20057;-74
2022/09/27 07:04:17;;;;;;;11.13;2.50;;;9.50;99.90;;;;;;4877591;29;20301;-74
2022/09/27 07:06:43;;;;;;;11.30;1.75;;;9.50;99.90;;;;;;4858368;29;20049;-73
2022/09/27 07:09:09;;;;;;;12.18;3.25;;;9.60;99.90;;;;;;4859265;29;20048;-74
2022/09/27 07:11:35;;;;;;;10.98;2.65;;;9.60;99.90;;;;;;4874829;29;20123;-73
2022/09/27 07:14:05;;;;;;;9.85;1.73;;;9.60;99.90;;;;;;4878750;29;20081;-74
2022/09/27 07:16:33;;;;;;;12.48;2.05;;;9.60;99.90;;;;;;4878671;29;20049;-74
2022/09/27 07:18:59;;;;;;;6.82;2.00;;;9.60;99.90;;;;;;4878085;29;20452;-76
2022/09/27 07:21:25;;;;;;;8.85;1.98;;;9.60;99.90;;;;;;4878662;29;20092;-75
2022/09/27 07:23:52;;;;;;;6.70;1.67;;;9.60;99.90;;;;;;4882718;29;20491;-75
2022/09/27 07:26:18;;;;;;;10.40;2.40;;;9.70;99.90;;;;;;4880544;29;20120;-75
2022/09/27 07:28:44;;;;;;;10.70;2.53;;;9.70;99.90;;;;;;4877830;29;20480;-75
2022/09/27 07:31:14;;;;;;;5.38;1.92;;;9.90;99.90;;;;;;4860865;29;20052;-73
2022/09/27 07:33:43;;;;;;;11.38;2.38;;;9.80;99.90;;;;;;4861493;29;20059;-74
2022/09/27 07:36:10;;;;;;;6.55;1.88;;;9.80;99.90;;;;;;4861554;29;20045;-73
2022/09/27 07:38:36;;;;;;;9.57;2.00;;;9.90;99.90;;;;;;4877219;29;20061;-74
2022/09/27 07:41:09;;;;;;;10.07;2.33;;;10.00;99.90;;;;;;4878359;29;20515;-74
2022/09/27 07:43:35;;;;;;;7.53;1.77;;;10.10;99.90;;;;;;4876241;29;20049;-74
2022/09/27 07:46:01;;;;;;;6.07;1.48;;;10.20;99.90;;;;;;4879402;29;20135;-74
2022/09/27 07:48:27;;;;;;;7.50;1.90;;;10.30;99.90;;;;;;4881853;29;20048;-75
2022/09/27 07:50:52;;;;;;;10.43;1.67;;;10.40;99.90;;;;;;4882065;29;20048;-75
2022/09/27 07:53:18;;;;;;;5.07;1.63;;;10.60;99.90;;;;;;4881363;29;20048;-74
2022/09/27 07:55:49;;;;;;;5.95;1.48;;;10.60;99.90;;;;;;4881747;29;20041;-74
2022/09/27 07:58:15;;;;;;;9.20;1.77;;;10.60;99.90;;;;;;4872129;29;20373;-75
2022/09/27 08:00:41;;;;;;;7.78;1.63;;;10.60;99.90;;;;;;4874465;29;20056;-74
2022/09/27 08:03:14;;;;;;;5.95;1.50;;;10.50;99.90;;;;;;4881441;29;20045;-74
2022/09/27 08:05:42;;;;;;;6.97;1.42;;;10.50;99.90;;;;;;4880424;29;20056;-75
2022/09/27 08:08:07;;;;;;;5.32;1.20;;;10.40;99.90;;;;;;4861741;29;20053;-75
2022/09/27 08:10:34;;;;;;;8.38;1.40;;;10.30;99.90;;;;;;4880777;29;20128;-75
2022/09/27 08:13:03;;;;;;;4.20;1.00;;;10.30;99.90;;;;;;4880114;29;20049;-73
2022/09/27 08:15:39;;;;;;;5.07;1.52;;;10.20;99.90;;;;;;4880876;29;20140;-73
2022/09/27 08:18:08;;;;;;;16.80;2.67;;;10.20;99.90;;;;;;4881531;29;20124;-74
2022/09/27 08:20:34;;;;;;;15.70;2.00;;;10.20;99.90;;;;;;4881159;29;20068;-74
2022/09/27 08:23:03;;;;;;;3.72;1.60;;;10.20;99.90;;;;;;4861445;29;20041;-74
2022/09/27 08:25:29;;;;;;;7.25;2.38;;;10.20;99.90;;;;;;4863011;29;20500;-74
2022/09/27 08:27:56;;;;;;;15.77;3.83;;;10.30;99.90;;;;;;4864079;29;20544;-74
2022/09/27 08:30:22;;;;;;;11.10;4.05;;;10.30;99.90;;;;;;4881227;29;20052;-74
2022/09/27 08:32:48;;;;;;;11.77;3.40;;;10.40;99.90;;;;;;4857520;29;20385;-73
2022/09/27 08:35:14;;;;;;;9.75;3.40;;;10.50;99.90;;;;;;4844073;29;20132;-75
2022/09/27 08:37:40;;;;;;;7.25;2.65;;;10.60;99.90;;;;;;4862314;29;20113;-73
2022/09/27 08:40:06;;;;;;;4.13;2.30;;;10.70;99.90;;;;;;4862461;29;20473;-74
2022/09/27 08:42:47;;;;;;;9.52;2.47;;;10.80;99.90;;;;;;4862275;29;20060;-73
2022/09/27 08:45:17;;;;;;;6.97;2.10;;;10.90;99.90;;;;;;4879853;29;20076;-74
2022/09/27 08:47:48;;;;;;;4.05;1.60;;;11.00;99.90;;;;;;4873909;29;20088;-74
2022/09/27 08:50:23;;;;;;;8.07;2.22;;;11.00;99.90;;;;;;4843631;29;20107;-75
2022/09/27 08:52:59;;;;;;;3.28;1.23;;;11.10;99.90;;;;;;4845310;29;20129;-75
2022/09/27 08:55:36;;;;;;;5.75;1.30;;;11.10;99.90;;;;;;4862028;29;20060;-75
2022/09/27 08:58:13;;;;;;;4.60;1.33;;;11.20;99.90;;;;;;4859606;29;20049;-75
2022/09/27 09:00:41;;;;;;;4.20;1.13;;;11.20;99.90;;;;;;4849898;29;20049;-75
2022/09/27 09:03:17;;;;;;;7.50;1.50;;;11.10;99.90;;;;;;4877765;29;20110;-75
2022/09/27 09:06:01;;;;;;;4.90;1.27;;;11.10;99.90;;;;;;4880456;29;20099;-74
2022/09/27 09:08:38;;;;;;;5.90;1.23;;;11.10;99.90;;;;;;4862858;29;20125;-74
2022/09/27 09:14:11;;;;;;;10.23;2.80;;;11.10;99.90;;;;;;4879259;29;20057;-75
2022/09/27 09:16:55;;;;;;;10.77;1.75;;;11.10;99.90;;;;;;4873385;29;20045;-75
2022/09/27 09:19:55;;;;;;;8.13;1.33;;;11.20;99.90;;;;;;4880195;29;20052;-74
2022/09/27 09:22:27;;;;;;;6.07;1.25;;;11.20;99.90;;;;;;4878210;29;20049;-73
2022/09/27 09:25:12;;;;;;;6.47;1.40;;;11.20;99.90;;;;;;4869852;29;20084;-75
2022/09/27 09:27:45;;;;;;;4.32;1.40;;;11.10;99.90;;;;;;4880006;29;20467;-74
2022/09/27 09:30:23;;;;;;;4.10;1.50;;;11.00;99.90;;;;;;4873599;29;20149;-74
2022/09/27 09:32:58;;;;;;;6.35;1.85;;;11.00;99.90;;;;;;4880206;29;20056;-74
2022/09/27 09:35:30;;;;;;;4.53;1.70;;;10.90;99.90;;;;;;4879739;29;20053;-74
2022/09/27 09:38:00;;;;;;;20.83;2.67;;;10.80;99.90;;;;;;4860201;29;20093;-74
2022/09/27 09:40:46;;;;;;;15.23;3.03;;;10.80;99.90;;;;;;4878624;29;20116;-72
2022/09/27 09:43:29;;;;;;;9.13;2.30;;;10.70;99.90;;;;;;4877827;29;20054;-72
2022/09/27 09:46:02;;;;;;;8.02;1.85;;;10.60;99.90;;;;;;4879786;29;20053;-74
2022/09/27 09:48:57;;;;;;;8.15;2.20;;;10.60;99.90;;;;;;4851129;29;20045;-73
2022/09/27 09:51:34;;;;;;;8.13;1.70;;;10.60;99.90;;;;;;4860683;29;20452;-72
2022/09/27 09:54:12;;;;;;;7.57;1.50;;;10.60;99.90;;;;;;4861259;29;20045;-73
2022/09/27 09:57:03;;;;;;;4.88;1.10;;;10.70;99.90;;;;;;4847027;29;20088;-72
2022/09/27 09:59:39;;;;;;;2.15;1.20;;;10.70;99.90;;;;;;4877384;29;20127;-73
2022/09/27 10:02:25;;;;;;;3.90;1.08;;;10.60;99.90;;;;;;4878177;29;20049;-72
2022/09/27 10:04:51;;;;;;;7.43;1.27;;;10.70;99.90;;;;;;4866962;29;20080;-73
2022/09/27 10:07:22;;;;;;;4.97;0.82;;;10.60;99.90;;;;;;4845001;29;20050;-74
2022/09/27 10:09:49;;;;;;;4.60;1.23;;;10.70;99.90;;;;;;4854241;29;20037;-73
2022/09/27 10:12:14;;;;;;;8.68;1.30;;;10.60;99.90;;;;;;4842826;29;20136;-73
2022/09/27 10:14:42;;;;;;;3.38;1.02;;;10.70;99.90;;;;;;4854176;29;20140;-74
2022/09/27 10:17:16;;;;;;;6.55;1.15;;;10.70;99.90;;;;;;4856503;29;20056;-74
2022/09/27 10:19:44;;;;;;;2.80;1.10;;;10.70;99.90;;;;;;4844764;29;20046;-74
2022/09/27 10:22:22;;;;;;;4.35;0.90;;;10.80;99.90;;;;;;4827497;29;20041;-74
2022/09/27 10:25:01;;;;;;;1.47;0.63;;;10.70;99.90;;;;;;4860444;29;20046;-74
2022/09/27 10:27:37;;;;;;;5.90;1.27;;;10.80;99.90;;;;;;4843360;29;20413;-76
2022/09/27 10:30:04;;;;;;;5.22;1.25;;;10.80;99.90;;;;;;4858177;29;20102;-75
2022/09/27 10:32:35;;;;;;;8.70;1.45;;;10.80;99.90;;;;;;4865303;29;21544;-76
2022/09/27 10:35:28;;;;;;;2.50;1.20;;;10.70;99.90;;;;;;4857130;29;20103;-76
2022/09/27 10:38:17;;;;;;;3.53;1.00;;;10.90;99.90;;;;;;4853512;29;20059;-75
2022/09/27 10:40:43;;;;;;;3.45;1.00;;;10.90;99.90;;;;;;4834363;29;20058;-76
2022/09/27 10:43:30;;;;;;;8.77;1.40;;;11.00;99.90;;;;;;4857714;29;20049;-76
2022/09/27 10:46:08;;;;;;;5.95;1.77;;;11.10;99.90;;;;;;4854823;29;20048;-73
2022/09/27 10:48:36;;;;;;;4.63;1.70;;;11.30;99.90;;;;;;4861115;29;20057;-75
2022/09/27 10:51:05;;;;;;;2.13;1.10;;;11.50;99.90;;;;;;4854261;29;20504;-74
2022/09/27 10:53:34;;;;;;;2.75;0.93;;;11.70;99.90;;;;;;4853814;29;21017;-75
2022/09/27 10:56:00;;;;;;;2.67;0.80;;;11.70;99.90;;;;;;4853316;29;20504;-75
2022/09/27 10:58:30;;;;;;;2.67;0.90;;;11.80;99.90;;;;;;4837014;29;20054;-75
2022/09/27 11:01:01;;;;;;;2.28;0.55;;;11.70;99.90;;;;;;4856812;29;20140;-75
2022/09/27 11:03:29;;;;;;;0.52;0.45;;;11.60;99.90;;;;;;4851082;29;20054;-74
2022/09/27 11:05:55;;;;;;;2.47;0.88;;;11.40;99.90;;;;;;4850549;29;20088;-74
2022/09/27 11:08:34;;;;;;;3.58;0.85;;;11.40;99.90;;;;;;4870614;29;20476;-75
2022/09/27 11:11:21;;;;;;;2.40;1.00;;;11.30;99.90;;;;;;4865608;29;20045;-75
2022/09/27 11:14:06;;;;;;;3.75;2.08;;;11.20;99.90;;;;;;4869609;29;20579;-75
2022/09/27 11:16:35;;;;;;;5.20;1.70;;;11.00;99.90;;;;;;4871143;29;20041;-76
2022/09/27 11:19:24;;;;;;;6.10;1.98;;;11.00;99.90;;;;;;4879191;29;20052;-74
2022/09/27 11:22:23;;;;;;;2.53;1.60;;;10.90;99.90;;;;;;4876006;29;20067;-74
2022/09/27 11:25:29;;;;;;;3.97;2.00;;;10.90;99.90;;;;;;4881059;29;20049;-74
2022/09/27 11:28:19;;;;;;;6.60;2.78;;;10.90;99.90;;;;;;4861662;29;20058;-75
2022/09/27 11:31:27;;;;;;;5.70;2.83;;;10.90;99.90;;;;;;4863938;29;20052;-75
2022/09/27 11:34:11;;;;;;;4.30;2.08;;;10.90;99.90;;;;;;4867497;29;20044;-75
2022/09/27 11:36:51;;;;;;;4.20;1.40;;;11.00;99.90;;;;;;4872839;29;20516;-76
2022/09/27 11:39:31;;;;;;;4.13;1.17;;;10.90;99.90;;;;;;4874085;29;20530;-75
2022/09/27 11:42:32;;;;;;;1.75;1.00;;;10.90;99.90;;;;;;4857554;29;20041;-74
2022/09/27 11:45:02;;;;;;;6.65;1.20;;;11.00;99.90;;;;;;4861242;29;20057;-72
2022/09/27 11:47:44;;;;;;;2.70;0.82;;;11.20;99.90;;;;;;4896691;29;20044;-76
2022/09/27 11:50:26;;;;;;;7.88;1.30;;;11.60;99.90;;;;;;4869316;29;20080;-75
2022/09/27 11:53:13;;;;;;;5.78;1.20;;;12.20;99.90;;;;;;4872816;29;20053;-74
2022/09/27 11:55:45;;;;;;;5.22;1.83;;;12.80;99.90;;;;;;4874773;29;20048;-74
2022/09/27 11:58:18;;;;;;;2.97;0.80;;;13.10;99.90;;;;;;4868525;29;20040;-74
2022/09/27 12:01:21;;;;;;;2.00;0.30;;;13.00;99.90;;;;;;4872306;29;20056;-74
2022/09/27 12:04:08;;;;;;;0.25;0.10;;;12.40;99.90;;;;;;4866941;29;20147;-74
2022/09/27 12:06:45;;;;;;;0.85;0.20;;;11.80;99.90;;;;;;4872771;29;20531;-74
2022/09/27 12:09:18;;;;;;;0.30;0.30;;;11.40;99.90;;;;;;4878791;29;20152;-73
2022/09/27 12:11:49;;;;;;;2.60;0.20;;;11.20;99.90;;;;;;4856781;29;20073;-74
2022/09/27 12:14:32;;;;;;;0.80;0.52;;;11.10;99.90;;;;;;4857391;29;20560;-74
2022/09/27 12:17:01;;;;;;;0.32;0.22;;;11.10;99.90;;;;;;4872109;29;20067;-74
2022/09/27 12:19:31;;;;;;;0.77;0.40;;;11.30;99.90;;;;;;4869526;29;20606;-73
2022/09/27 12:22:02;;;;;;;1.38;0.50;;;11.40;99.90;;;;;;4869590;29;20088;-74
2022/09/27 12:24:28;;;;;;;2.35;0.60;;;11.40;99.90;;;;;;4874541;29;20076;-74
2022/09/27 12:27:00;;;;;;;1.30;0.52;;;11.30;99.90;;;;;;4872109;29;20042;-73
2022/09/27 12:29:32;;;;;;;1.80;0.47;;;11.40;99.90;;;;;;4875384;29;20089;-73
2022/09/27 12:32:16;;;;;;;1.63;0.60;;;11.40;99.90;;;;;;4858285;29;20042;-74
2022/09/27 12:34:57;;;;;;;1.90;0.65;;;11.40;99.90;;;;;;4872612;29;20053;-75
2022/09/27 12:37:47;;;;;;;2.70;0.77;;;11.40;99.90;;;;;;4875824;29;20044;-75
2022/09/27 12:40:25;;;;;;;3.50;1.02;;;11.50;99.90;;;;;;4869699;29;20041;-74
2022/09/27 12:43:16;;;;;;;3.58;0.90;;;11.50;99.90;;;;;;4877504;29;20049;-73
2022/09/27 12:45:57;;;;;;;3.30;0.90;;;11.50;99.90;;;;;;4858469;29;20059;-73
2022/09/27 12:48:38;;;;;;;5.30;1.10;;;11.50;99.90;;;;;;4856241;29;20484;-74
2022/09/27 12:51:10;;;;;;;3.17;0.75;;;11.60;99.90;;;;;;4870514;29;20044;-75
2022/09/27 12:54:04;;;;;;;5.18;1.10;;;11.60;99.90;;;;;;4872916;29;20053;-74
2022/09/27 12:57:00;;;;;;;4.50;1.23;;;11.70;99.90;;;;;;4869700;29;20053;-75
2022/09/27 12:59:45;;;;;;;4.68;1.17;;;11.70;99.90;;;;;;4860986;29;20076;-75
2022/09/27 13:02:36;;;;;;;3.53;1.00;;;11.80;99.90;;;;;;4873261;29;20507;-74
2022/09/27 13:05:32;;;;;;;3.88;1.10;;;11.80;99.90;;;;;;4879074;29;20056;-74
2022/09/27 13:08:07;;;;;;;5.22;1.13;;;11.80;99.90;;;;;;4878938;29;20053;-74
2022/09/27 13:10:46;;;;;;;2.72;0.85;;;11.80;99.90;;;;;;4871515;29;20530;-74
2022/09/27 13:13:16;;;;;;;3.95;1.20;;;11.90;99.90;;;;;;4873041;29;20041;-73
2022/09/27 13:15:44;;;;;;;5.90;1.35;;;12.00;99.90;;;;;;4871478;29;20044;-74
2022/09/27 13:18:31;;;;;;;2.28;1.00;;;12.00;99.90;;;;;;4875764;29;20471;-75
2022/09/27 13:20:57;;;;;;;1.55;0.77;;;12.00;99.90;;;;;;4871600;29;20069;-75
2022/09/27 13:23:23;;;;;;;3.00;0.73;;;12.00;99.90;;;;;;4859898;29;20529;-77
2022/09/27 13:25:56;;;;;;;4.10;0.60;;;11.90;99.90;;;;;;4860461;29;20049;-77
2022/09/27 13:28:31;;;;;;;1.30;0.65;;;11.80;99.90;;;;;;4873635;29;20052;-78
2022/09/27 13:31:10;;;;;;;4.07;0.98;;;11.80;99.90;;;;;;4877312;29;20052;-76
2022/09/27 13:33:50;;;;;;;3.22;0.90;;;11.90;99.90;;;;;;4875938;29;20120;-76
2022/09/27 13:36:20;;;;;;;2.53;0.73;;;11.90;99.90;;;;;;4888509;29;20045;-76
2022/09/27 13:39:00;;;;;;;2.92;0.95;;;11.70;99.90;;;;;;4878527;29;20060;-77
2022/09/27 13:41:35;;;;;;;0.70;0.50;;;11.60;99.90;;;;;;4863885;29;20057;-76
2022/09/27 13:44:07;;;;;;;2.38;0.75;;;11.50;99.90;;;;;;4868740;29;20406;-78
2022/09/27 13:46:34;;;;;;;2.13;0.63;;;11.20;99.90;;;;;;4868996;29;20139;-75
2022/09/27 13:49:15;;;;;;;2.55;0.77;;;11.30;99.90;;;;;;4887443;29;20053;-76
2022/09/27 13:51:55;;;;;;;4.15;1.00;;;11.10;99.90;;;;;;4862050;29;20143;-74
2022/09/27 13:54:33;;;;;;;3.17;0.65;;;10.90;99.90;;;;;;4860652;29;20080;-74
2022/09/27 13:57:00;;;;;;;1.65;0.80;;;10.80;99.90;;;;;;4870656;29;20049;-74
2022/09/27 13:59:48;;;;;;;2.75;1.10;;;10.70;99.90;;;;;;4875890;29;20495;-74
2022/09/27 14:02:28;;;;;;;4.65;1.60;;;10.70;99.90;;;;;;4844990;29;20053;-75
2022/09/27 14:04:55;;;;;;;5.45;1.90;;;10.60;99.90;;;;;;4876443;29;20057;-75
2022/09/27 14:07:25;;;;;;;6.10;2.40;;;10.60;99.90;;;;;;4859881;29;20051;-74
2022/09/27 14:09:57;;;;;;;5.55;2.15;;;10.60;99.90;;;;;;4871132;29;21027;-75
2022/09/27 14:12:38;;;;;;;6.65;2.58;;;10.60;99.90;;;;;;4876066;29;20045;-74
2022/09/27 14:15:07;;;;;;;4.63;3.20;;;10.70;99.90;;;;;;4864647;29;20410;-75
2022/09/27 14:17:33;;;;;;;6.82;2.97;;;10.70;99.90;;;;;;4879428;29;20053;-74
2022/09/27 14:20:01;;;;;;;4.18;1.92;;;10.80;99.90;;;;;;4872126;29;20381;-75
2022/09/27 14:22:27;;;;;;;4.75;1.80;;;10.80;99.90;;;;;;4857092;29;20072;-76
2022/09/27 14:24:55;;;;;;;9.93;1.65;;;10.80;99.90;;;;;;4871910;29;20415;-74
2022/09/27 14:27:28;;;;;;;;;;;10.80;99.90;;;;;;4873034;29;20040;-74
2022/09/27 14:30:00;;;;;;;7.22;1.40;;;10.70;99.90;;;;;;4875498;29;20370;-74
2022/09/27 14:32:30;;;;;;;4.45;1.10;;;10.70;99.90;;;;;;4857765;29;20104;-72
2022/09/27 14:35:02;;;;;;;2.42;0.80;;;10.60;99.90;;;;;;4869059;29;20070;-72
2022/09/27 14:37:28;;;;;;;1.25;0.57;;;10.60;99.90;;;;;;4873006;29;20128;-74
2022/09/27 14:40:02;;;;;;;1.80;0.77;;;10.50;99.90;;;;;;4858913;29;20502;-76
2022/09/27 14:42:31;;;;;;;2.85;0.80;;;10.60;99.90;;;;;;4869664;29;20033;-74
2022/09/27 14:45:01;;;;;;;2.40;1.00;;;10.40;99.90;;;;;;4843152;29;20052;-75
2022/09/27 14:47:28;;;;;;;3.20;1.27;;;10.40;99.90;;;;;;4876784;29;20049;-74
2022/09/27 14:49:59;;;;;;;2.40;1.38;;;10.40;99.90;;;;;;4868630;29;20052;-74
2022/09/27 14:52:30;;;;;;;5.70;2.45;;;10.50;99.90;;;;;;4854408;29;20056;-75